Time,TemperatureF,DewpointF,PressureIn,WindDirection,WindDirectionDegrees,WindSpeedMPH,WindSpeedGustMPH,Humidity,HourlyPrecipIn,Conditions,Clouds,dailyrainin,SoftwareType,DateUTC
2013-08-13 00:00:00,54.8,53.7,29.97,South,180,0.0,7.0,96,0.00,,,0.00,Wunderground v.1.15,2013-08-13 07:00:00,
2013-08-13 00:05:00,54.6,53.5,29.97,South,180,0.0,7.0,96,0.00,,,0.00,Wunderground v.1.15,2013-08-13 07:05:00,
2013-08-13 00:15:00,54.6,53.5,29.97,South,180,0.0,0.0,96,0.00,,,0.00,Wunderground v.1.15,2013-08-13 07:15:00,
2013-08-13 00:20:00,54.6,53.5,29.97,South,180,0.0,0.0,96,0.00,,,0.00,Wunderground v.1.15,2013-08-13 07:20:00,
2013-08-13 00:25:00,54.5,53.4,29.97,South,180,0.0,0.0,96,0.00,,,0.00,Wunderground v.1.15,2013-08-13 07:25:00,
2013-08-13 00:30:00,54.4,53.3,29.97,South,180,0.0,0.0,96,0.00,,,0.00,Wunderground v.1.15,2013-08-13 07:30:00,
2013-08-13 00:35:00,54.4,53.3,29.97,South,180,0.0,0.0,96,0.00,,,0.00,Wunderground v.1.15,2013-08-13 07:35:00,
2013-08-13 00:40:00,54.4,53.3,29.97,South,180,0.0,0.0,96,0.00,,,0.00,Wunderground v.1.15,2013-08-13 07:40:00,
2013-08-13 00:50:00,54.5,53.4,29.97,South,180,0.0,0.0,96,0.00,,,0.00,Wunderground v.1.15,2013-08-13 07:50:00,
2013-08-13 00:55:00,54.4,53.3,29.97,South,180,0.0,0.0,96,0.00,,,0.00,Wunderground v.1.15,2013-08-13 07:55:00,
2013-08-13 01:00:00,54.4,53.3,29.97,South,180,0.0,0.0,96,0.00,,,0.00,Wunderground v.1.15,2013-08-13 08:00:00,
2013-08-13 01:05:00,54.4,53.3,29.96,South,180,0.0,3.0,96,0.00,,,0.00,Wunderground v.1.15,2013-08-13 08:05:00,
2013-08-13 01:15:00,54.5,53.7,29.96,South,180,0.0,3.0,97,0.00,,,0.00,Wunderground v.1.15,2013-08-13 08:15:00,
2013-08-13 01:20:00,54.4,53.3,29.96,South,180,0.0,3.0,96,0.00,,,0.00,Wunderground v.1.15,2013-08-13 08:20:00,
2013-08-13 01:25:00,54.4,53.3,29.96,South,180,0.0,3.0,96,0.00,,,0.00,Wunderground v.1.15,2013-08-13 08:25:00,
2013-08-13 01:30:00,54.4,53.6,29.97,South,180,0.0,3.0,97,0.00,,,0.00,Wunderground v.1.15,2013-08-13 08:30:00,
2013-08-13 01:35:00,54.4,53.6,29.96,South,180,0.0,3.0,97,0.00,,,0.00,Wunderground v.1.15,2013-08-13 08:35:00,
2013-08-13 01:45:00,54.3,53.5,29.97,South,180,0.0,3.0,97,0.00,,,0.00,Wunderground v.1.15,2013-08-13 08:45:00,
2013-08-13 01:50:00,54.3,53.5,29.97,South,180,0.0,3.0,97,0.00,,,0.00,Wunderground v.1.15,2013-08-13 08:50:00,
2013-08-13 01:55:00,54.4,53.6,29.96,South,180,0.0,3.0,97,0.00,,,0.00,Wunderground v.1.15,2013-08-13 08:55:00,
2013-08-13 02:00:00,54.4,53.6,29.97,South,180,0.0,3.0,97,0.00,,,0.00,Wunderground v.1.15,2013-08-13 09:00:00,
2013-08-13 02:05:00,54.4,53.6,29.96,South,180,0.0,3.0,97,0.00,,,0.00,Wunderground v.1.15,2013-08-13 09:05:00,
2013-08-13 02:15:00,54.3,53.5,29.97,South,180,0.0,3.0,97,0.00,,,0.00,Wunderground v.1.15,2013-08-13 09:15:00,
2013-08-13 02:20:00,54.3,53.5,29.96,South,180,0.0,3.0,97,0.00,,,0.00,Wunderground v.1.15,2013-08-13 09:20:00,
2013-08-13 02:25:00,54.3,53.5,29.96,South,180,0.0,3.0,97,0.00,,,0.00,Wunderground v.1.15,2013-08-13 09:25:00,
2013-08-13 02:30:00,54.3,53.5,29.96,South,180,0.0,3.0,97,0.00,,,0.00,Wunderground v.1.15,2013-08-13 09:30:00,
2013-08-13 02:35:00,54.3,53.5,29.96,South,180,0.0,3.0,97,0.00,,,0.00,Wunderground v.1.15,2013-08-13 09:35:00,
2013-08-13 02:45:00,54.2,53.4,29.96,South,180,0.0,3.0,97,0.00,,,0.00,Wunderground v.1.15,2013-08-13 09:45:00,
2013-08-13 02:50:00,54.2,53.4,29.97,South,180,0.0,3.0,97,0.00,,,0.00,Wunderground v.1.15,2013-08-13 09:50:00,
2013-08-13 02:55:00,54.1,53.3,29.96,South,180,0.0,3.0,97,0.00,,,0.00,Wunderground v.1.15,2013-08-13 09:55:00,
2013-08-13 03:00:00,54.0,53.2,29.96,South,180,0.0,3.0,97,0.00,,,0.00,Wunderground v.1.15,2013-08-13 10:00:00,
2013-08-13 03:05:00,53.9,53.1,29.96,South,180,0.0,3.0,97,0.00,,,0.00,Wunderground v.1.15,2013-08-13 10:05:00,
2013-08-13 03:10:00,53.8,53.0,29.97,South,180,0.0,3.0,97,0.00,,,0.00,Wunderground v.1.15,2013-08-13 10:10:00,
2013-08-13 03:20:00,53.8,53.0,29.97,South,180,0.0,3.0,97,0.00,,,0.00,Wunderground v.1.15,2013-08-13 10:20:00,
2013-08-13 03:25:00,53.8,53.0,29.96,South,180,1.0,3.0,97,0.00,,,0.00,Wunderground v.1.15,2013-08-13 10:25:00,
2013-08-13 03:30:00,53.7,52.9,29.97,South,180,1.0,1.0,97,0.00,,,0.00,Wunderground v.1.15,2013-08-13 10:30:00,
2013-08-13 03:35:00,53.6,53.0,29.96,South,180,0.0,3.0,98,0.00,,,0.00,Wunderground v.1.15,2013-08-13 10:35:00,
2013-08-13 03:40:00,53.5,52.9,29.97,South,180,1.0,3.0,98,0.00,,,0.00,Wunderground v.1.15,2013-08-13 10:40:00,
2013-08-13 03:50:00,53.4,52.8,29.97,South,180,0.0,3.0,98,0.00,,,0.00,Wunderground v.1.15,2013-08-13 10:50:00,
2013-08-13 03:55:00,53.3,52.8,29.97,South,180,0.0,3.0,98,0.00,,,0.00,Wunderground v.1.15,2013-08-13 10:55:00,
2013-08-13 04:00:00,53.3,52.8,29.97,South,180,1.0,3.0,98,0.00,,,0.00,Wunderground v.1.15,2013-08-13 11:00:00,
2013-08-13 04:05:00,53.2,52.7,29.97,South,180,0.0,3.0,98,0.00,,,0.00,Wunderground v.1.15,2013-08-13 11:05:00,
2013-08-13 04:10:00,53.1,52.6,29.97,South,180,1.0,3.0,98,0.00,,,0.00,Wunderground v.1.15,2013-08-13 11:10:00,
2013-08-13 04:20:00,53.1,52.6,29.97,South,180,1.0,1.0,98,0.00,,,0.00,Wunderground v.1.15,2013-08-13 11:20:00,
2013-08-13 04:25:00,53.0,52.5,29.96,South,180,0.0,3.0,98,0.00,,,0.00,Wunderground v.1.15,2013-08-13 11:25:00,
2013-08-13 04:30:00,52.8,52.3,29.97,South,180,0.0,3.0,98,0.00,,,0.00,Wunderground v.1.15,2013-08-13 11:30:00,
2013-08-13 04:35:00,52.8,52.3,29.96,South,180,0.0,3.0,98,0.00,,,0.00,Wunderground v.1.15,2013-08-13 11:35:00,
2013-08-13 04:40:00,52.9,52.4,29.97,South,180,0.0,3.0,98,0.00,,,0.00,Wunderground v.1.15,2013-08-13 11:40:00,
2013-08-13 04:45:00,52.9,52.4,29.97,South,180,0.0,3.0,98,0.00,,,0.00,Wunderground v.1.15,2013-08-13 11:45:00,
2013-08-13 04:55:00,53.0,52.5,29.96,South,180,0.0,3.0,98,0.00,,,0.00,Wunderground v.1.15,2013-08-13 11:55:00,
2013-08-13 05:00:00,53.0,52.5,29.96,South,180,0.0,3.0,98,0.00,,,0.00,Wunderground v.1.15,2013-08-13 12:00:00,
2013-08-13 05:05:00,53.0,52.5,29.96,South,180,0.0,3.0,98,0.00,,,0.00,Wunderground v.1.15,2013-08-13 12:05:00,
2013-08-13 05:10:00,53.0,52.5,29.96,South,180,0.0,3.0,98,0.00,,,0.00,Wunderground v.1.15,2013-08-13 12:10:00,
2013-08-13 05:15:00,53.0,52.5,29.96,South,180,0.0,3.0,98,0.00,,,0.00,Wunderground v.1.15,2013-08-13 12:15:00,
2013-08-13 05:25:00,52.9,52.4,29.96,South,178,1.0,3.0,98,0.00,,,0.00,Wunderground v.1.15,2013-08-13 12:25:00,
2013-08-13 05:30:00,53.0,52.7,29.97,South,178,0.0,3.0,99,0.00,,,0.00,Wunderground v.1.15,2013-08-13 12:30:00,
2013-08-13 05:35:00,53.1,52.8,29.97,South,178,0.0,3.0,99,0.00,,,0.00,Wunderground v.1.15,2013-08-13 12:35:00,
2013-08-13 05:40:00,53.2,52.9,29.97,South,178,0.0,3.0,99,0.00,,,0.00,Wunderground v.1.15,2013-08-13 12:40:00,
2013-08-13 05:45:00,53.2,52.9,29.97,South,178,0.0,3.0,99,0.00,,,0.00,Wunderground v.1.15,2013-08-13 12:45:00,
2013-08-13 05:55:00,53.3,53.0,29.96,South,178,0.0,3.0,99,0.00,,,0.00,Wunderground v.1.15,2013-08-13 12:55:00,
2013-08-13 06:00:00,53.2,52.9,29.96,South,178,1.0,1.0,99,0.00,,,0.00,Wunderground v.1.15,2013-08-13 13:00:00,
2013-08-13 06:05:00,53.2,52.9,29.97,SSE,163,1.0,3.0,99,0.00,,,0.00,Wunderground v.1.15,2013-08-13 13:05:00,
2013-08-13 06:10:00,53.2,52.9,29.97,SSW,202,0.0,3.0,99,0.00,,,0.00,Wunderground v.1.15,2013-08-13 13:10:00,
2013-08-13 06:20:00,53.0,52.7,29.97,SSW,201,1.0,3.0,99,0.00,,,0.00,Wunderground v.1.15,2013-08-13 13:20:00,
2013-08-13 06:25:00,52.8,52.3,29.97,SSW,201,1.0,3.0,98,0.00,,,0.00,Wunderground v.1.15,2013-08-13 13:25:00,
2013-08-13 06:30:00,52.7,52.2,29.97,SSW,202,1.0,1.0,98,0.00,,,0.00,Wunderground v.1.15,2013-08-13 13:30:00,
2013-08-13 06:35:00,52.6,52.3,29.97,SSW,200,1.0,3.0,99,0.00,,,0.00,Wunderground v.1.15,2013-08-13 13:35:00,
2013-08-13 06:40:00,52.5,52.2,29.97,SSW,199,1.0,1.0,99,0.00,,,0.00,Wunderground v.1.15,2013-08-13 13:40:00,
2013-08-13 06:45:00,52.4,51.9,29.97,SSW,199,0.0,3.0,98,0.00,,,0.00,Wunderground v.1.15,2013-08-13 13:45:00,
2013-08-13 06:55:00,52.2,51.7,29.97,SSW,196,1.0,3.0,98,0.00,,,0.00,Wunderground v.1.15,2013-08-13 13:55:00,
2013-08-13 07:00:00,52.2,51.7,29.97,South,182,1.0,1.0,98,0.00,,,0.00,Wunderground v.1.15,2013-08-13 14:00:00,
2013-08-13 07:05:00,52.3,52.0,29.97,South,182,1.0,4.0,99,0.00,,,0.00,Wunderground v.1.15,2013-08-13 14:05:00,
2013-08-13 07:10:00,52.3,52.0,29.97,South,182,1.0,1.0,99,0.00,,,0.00,Wunderground v.1.15,2013-08-13 14:10:00,
2013-08-13 07:15:00,52.4,52.1,29.97,NE,50,1.0,3.0,99,0.00,,,0.00,Wunderground v.1.15,2013-08-13 14:15:00,
2013-08-13 07:25:00,52.4,52.1,29.98,NE,50,0.0,3.0,99,0.00,,,0.00,Wunderground v.1.15,2013-08-13 14:25:00,
2013-08-13 07:30:00,52.5,52.2,29.98,NE,50,0.0,3.0,99,0.00,,,0.00,Wunderground v.1.15,2013-08-13 14:30:00,
2013-08-13 07:35:00,52.5,52.2,29.98,NE,50,0.0,3.0,99,0.00,,,0.00,Wunderground v.1.15,2013-08-13 14:35:00,
2013-08-13 07:40:00,52.6,52.3,29.98,NE,50,0.0,3.0,99,0.00,,,0.00,Wunderground v.1.15,2013-08-13 14:40:00,
2013-08-13 07:45:00,52.8,52.5,29.98,NE,50,0.0,3.0,99,0.00,,,0.00,Wunderground v.1.15,2013-08-13 14:45:00,
2013-08-13 07:55:00,52.9,52.6,29.98,ENE,70,0.0,3.0,99,0.00,,,0.00,Wunderground v.1.15,2013-08-13 14:55:00,
2013-08-13 08:00:00,53.1,52.8,29.98,ENE,70,0.0,3.0,99,0.00,,,0.00,Wunderground v.1.15,2013-08-13 15:00:00,
2013-08-13 08:05:00,53.3,53.0,29.99,ENE,70,0.0,3.0,99,0.00,,,0.00,Wunderground v.1.15,2013-08-13 15:05:00,
2013-08-13 08:10:00,53.4,53.1,29.99,ENE,70,0.0,3.0,99,0.00,,,0.00,Wunderground v.1.15,2013-08-13 15:10:00,
2013-08-13 08:15:00,53.5,53.2,29.99,ENE,70,0.0,3.0,99,0.00,,,0.00,Wunderground v.1.15,2013-08-13 15:15:00,
2013-08-13 08:25:00,53.7,53.4,30.00,East,81,0.0,3.0,99,0.00,,,0.00,Wunderground v.1.15,2013-08-13 15:25:00,
2013-08-13 08:30:00,53.8,53.5,30.00,East,81,0.0,3.0,99,0.00,,,0.00,Wunderground v.1.15,2013-08-13 15:30:00,
2013-08-13 08:35:00,53.7,53.4,30.00,East,81,0.0,3.0,99,0.00,,,0.00,Wunderground v.1.15,2013-08-13 15:35:00,
2013-08-13 08:45:00,54.2,53.9,30.00,ENE,78,0.0,3.0,99,0.00,,,0.00,Wunderground v.1.15,2013-08-13 15:45:00,
2013-08-13 08:50:00,54.4,54.1,30.00,ENE,78,0.0,3.0,99,0.00,,,0.00,Wunderground v.1.15,2013-08-13 15:50:00,
2013-08-13 08:55:00,54.3,54.0,30.00,East,89,0.0,3.0,99,0.00,,,0.00,Wunderground v.1.15,2013-08-13 15:55:00,
2013-08-13 09:00:00,54.6,54.3,30.00,East,89,0.0,3.0,99,0.00,,,0.00,Wunderground v.1.15,2013-08-13 16:00:00,
2013-08-13 09:05:00,54.7,54.1,30.00,ESE,107,1.0,3.0,98,0.00,,,0.00,Wunderground v.1.15,2013-08-13 16:05:00,
2013-08-13 09:15:00,55.2,54.6,30.00,SE,139,0.0,3.0,98,0.00,,,0.00,Wunderground v.1.15,2013-08-13 16:15:00,
2013-08-13 09:20:00,55.5,54.7,30.00,SE,139,0.0,3.0,97,0.00,,,0.00,Wunderground v.1.15,2013-08-13 16:20:00,
2013-08-13 09:25:00,56.0,54.9,30.00,SE,139,1.0,3.0,96,0.00,,,0.00,Wunderground v.1.15,2013-08-13 16:25:00,
2013-08-13 09:30:00,56.9,55.5,30.00,SSE,161,1.0,3.0,95,0.00,,,0.00,Wunderground v.1.15,2013-08-13 16:30:00,
2013-08-13 09:35:00,57.3,55.6,30.00,South,181,2.0,3.0,94,0.00,,,0.00,Wunderground v.1.15,2013-08-13 16:35:00,
2013-08-13 09:45:00,58.8,55.9,30.00,SW,225,3.0,6.0,90,0.00,,,0.00,Wunderground v.1.15,2013-08-13 16:45:00,
2013-08-13 09:50:00,59.5,55.9,30.00,South,188,4.0,4.0,88,0.00,,,0.00,Wunderground v.1.15,2013-08-13 16:50:00,
2013-08-13 09:55:00,60.1,56.2,30.00,SSW,200,4.0,4.0,87,0.00,,,0.00,Wunderground v.1.15,2013-08-13 16:55:00,
2013-08-13 10:00:00,60.4,56.2,30.00,SSW,207,4.0,4.0,86,0.00,,,0.00,Wunderground v.1.15,2013-08-13 17:00:00,
2013-08-13 10:05:00,61.0,56.5,30.00,South,185,4.0,6.0,85,0.00,,,0.00,Wunderground v.1.15,2013-08-13 17:05:00,
2013-08-13 10:15:00,60.7,56.2,30.01,SW,217,5.0,7.0,85,0.00,,,0.00,Wunderground v.1.15,2013-08-13 17:15:00,
2013-08-13 10:20:00,60.8,56.6,30.00,SSW,209,5.0,5.0,86,0.00,,,0.00,Wunderground v.1.15,2013-08-13 17:20:00,
2013-08-13 10:25:00,60.8,56.3,30.00,SSW,208,4.0,5.0,85,0.00,,,0.00,Wunderground v.1.15,2013-08-13 17:25:00,
2013-08-13 10:30:00,60.9,56.0,30.00,SSW,210,5.0,5.0,84,0.00,,,0.00,Wunderground v.1.15,2013-08-13 17:30:00,
2013-08-13 10:40:00,61.5,56.3,30.00,SSW,196,5.0,5.0,83,0.00,,,0.00,Wunderground v.1.15,2013-08-13 17:40:00,
2013-08-13 10:45:00,62.2,56.3,29.99,SW,224,5.0,5.0,81,0.00,,,0.00,Wunderground v.1.15,2013-08-13 17:45:00,
2013-08-13 10:50:00,62.4,56.1,29.99,WSW,251,5.0,5.0,80,0.00,,,0.00,Wunderground v.1.15,2013-08-13 17:50:00,
2013-08-13 10:55:00,62.4,56.5,29.99,WSW,237,5.0,5.0,81,0.00,,,0.00,Wunderground v.1.15,2013-08-13 17:55:00,
2013-08-13 11:00:00,63.1,56.5,29.99,SSW,209,5.0,5.0,79,0.00,,,0.00,Wunderground v.1.15,2013-08-13 18:00:00,
2013-08-13 11:05:00,63.8,56.8,29.99,SSW,198,4.0,5.0,78,0.00,,,0.00,Wunderground v.1.15,2013-08-13 18:05:00,
2013-08-13 11:15:00,63.9,56.5,29.99,SSW,206,4.0,4.0,77,0.00,,,0.00,Wunderground v.1.15,2013-08-13 18:15:00,
2013-08-13 11:20:00,64.3,56.6,29.99,SSW,201,4.0,4.0,76,0.00,,,0.00,Wunderground v.1.15,2013-08-13 18:20:00,
2013-08-13 11:25:00,64.8,56.7,29.99,SSW,194,3.0,4.0,75,0.00,,,0.00,Wunderground v.1.15,2013-08-13 18:25:00,
2013-08-13 11:30:00,64.9,56.8,29.98,SSW,192,2.0,4.0,75,0.00,,,0.00,Wunderground v.1.15,2013-08-13 18:30:00,
2013-08-13 11:35:00,65.4,56.9,29.98,South,180,2.0,5.0,74,0.00,,,0.00,Wunderground v.1.15,2013-08-13 18:35:00,
2013-08-13 11:40:00,66.1,56.8,29.98,South,173,2.0,5.0,72,0.00,,,0.00,Wunderground v.1.15,2013-08-13 18:40:00,
2013-08-13 11:50:00,66.8,56.7,29.98,South,189,3.0,7.0,70,0.00,,,0.00,Wunderground v.1.15,2013-08-13 18:50:00,
2013-08-13 11:55:00,67.3,57.2,29.98,SSW,200,3.0,7.0,70,0.00,,,0.00,Wunderground v.1.15,2013-08-13 18:55:00,
2013-08-13 12:00:00,67.5,57.0,29.97,SSW,202,3.0,4.0,69,0.00,,,0.00,Wunderground v.1.15,2013-08-13 19:00:00,
2013-08-13 12:10:00,68.4,57.0,29.97,South,184,5.0,5.0,67,0.00,,,0.00,Wunderground v.1.15,2013-08-13 19:10:00,
2013-08-13 12:15:00,69.3,57.5,29.97,WSW,248,4.0,5.0,66,0.00,,,0.00,Wunderground v.1.15,2013-08-13 19:15:00,
2013-08-13 12:20:00,69.0,57.2,29.97,SW,225,4.0,4.0,66,0.00,,,0.00,Wunderground v.1.15,2013-08-13 19:20:00,
2013-08-13 12:25:00,69.4,57.1,29.97,SW,217,5.0,8.0,65,0.00,,,0.00,Wunderground v.1.15,2013-08-13 19:25:00,
2013-08-13 12:30:00,69.7,57.4,29.97,SW,223,6.0,6.0,65,0.00,,,0.00,Wunderground v.1.15,2013-08-13 19:30:00,
2013-08-13 12:40:00,69.8,57.1,29.97,South,190,7.0,7.0,64,0.00,,,0.00,Wunderground v.1.15,2013-08-13 19:40:00,
2013-08-13 12:45:00,69.9,57.2,29.97,SSW,213,6.0,7.0,64,0.00,,,0.00,Wunderground v.1.15,2013-08-13 19:45:00,
2013-08-13 12:50:00,69.6,56.4,29.97,SSW,197,7.0,7.0,63,0.00,,,0.00,Wunderground v.1.15,2013-08-13 19:50:00,
2013-08-13 12:55:00,69.7,56.5,29.97,SW,221,7.0,9.0,63,0.00,,,0.00,Wunderground v.1.15,2013-08-13 19:55:00,
2013-08-13 13:00:00,69.6,56.4,29.97,South,188,7.0,7.0,63,0.00,,,0.00,Wunderground v.1.15,2013-08-13 20:00:00,
2013-08-13 13:10:00,69.7,56.5,29.97,South,188,6.0,6.0,63,0.00,,,0.00,Wunderground v.1.15,2013-08-13 20:10:00,
2013-08-13 13:15:00,69.2,56.5,29.97,SW,222,7.0,8.0,64,0.00,,,0.00,Wunderground v.1.15,2013-08-13 20:15:00,
2013-08-13 13:20:00,69.2,56.5,29.97,SW,223,8.0,8.0,64,0.00,,,0.00,Wunderground v.1.15,2013-08-13 20:20:00,
2013-08-13 13:25:00,69.0,56.7,29.96,WSW,238,8.0,10.0,65,0.00,,,0.00,Wunderground v.1.15,2013-08-13 20:25:00,
2013-08-13 13:30:00,68.9,56.6,29.96,WSW,240,9.0,9.0,65,0.00,,,0.00,Wunderground v.1.15,2013-08-13 20:30:00,
2013-08-13 13:40:00,69.3,56.6,29.96,WSW,240,9.0,12.0,64,0.00,,,0.00,Wunderground v.1.15,2013-08-13 20:40:00,
2013-08-13 13:45:00,69.6,56.9,29.96,SW,229,9.0,12.0,64,0.00,,,0.00,Wunderground v.1.15,2013-08-13 20:45:00,
2013-08-13 13:50:00,69.4,56.7,29.96,WSW,243,9.0,11.0,64,0.00,,,0.00,Wunderground v.1.15,2013-08-13 20:50:00,
2013-08-13 13:55:00,69.5,56.8,29.96,SSW,205,9.0,11.0,64,0.00,,,0.00,Wunderground v.1.15,2013-08-13 20:55:00,
2013-08-13 14:00:00,69.9,57.2,29.96,SW,227,8.0,8.0,64,0.00,,,0.00,Wunderground v.1.15,2013-08-13 21:00:00,
2013-08-13 14:05:00,69.3,56.6,29.96,WSW,237,9.0,9.0,64,0.00,,,0.00,Wunderground v.1.15,2013-08-13 21:05:00,
2013-08-13 14:15:00,68.9,57.1,29.96,WSW,245,9.0,10.0,66,0.00,,,0.00,Wunderground v.1.15,2013-08-13 21:15:00,
2013-08-13 14:20:00,69.4,57.1,29.96,SSW,212,9.0,10.0,65,0.00,,,0.00,Wunderground v.1.15,2013-08-13 21:20:00,
2013-08-13 14:25:00,69.7,57.0,29.96,South,182,8.0,10.0,64,0.00,,,0.00,Wunderground v.1.15,2013-08-13 21:25:00,
2013-08-13 14:30:00,69.5,56.8,29.96,SSW,196,8.0,8.0,64,0.00,,,0.00,Wunderground v.1.15,2013-08-13 21:30:00,
2013-08-13 14:40:00,70.1,56.9,29.95,South,190,7.0,7.0,63,0.00,,,0.00,Wunderground v.1.15,2013-08-13 21:40:00,
2013-08-13 14:45:00,70.4,57.2,29.96,SSW,197,8.0,8.0,63,0.00,,,0.00,Wunderground v.1.15,2013-08-13 21:45:00,
2013-08-13 14:50:00,70.1,56.9,29.95,South,186,7.0,10.0,63,0.00,,,0.00,Wunderground v.1.15,2013-08-13 21:50:00,
2013-08-13 14:55:00,69.0,56.7,29.95,SSW,200,8.0,11.0,65,0.00,,,0.00,Wunderground v.1.15,2013-08-13 21:55:00,
2013-08-13 15:05:00,69.9,57.2,29.95,SSW,194,7.0,10.0,64,0.00,,,0.00,Wunderground v.1.15,2013-08-13 22:05:00,
2013-08-13 15:10:00,69.6,56.9,29.95,South,179,7.0,8.0,64,0.00,,,0.00,Wunderground v.1.15,2013-08-13 22:10:00,
2013-08-13 15:15:00,68.9,56.6,29.95,SSW,192,8.0,10.0,65,0.00,,,0.00,Wunderground v.1.15,2013-08-13 22:15:00,
2013-08-13 15:20:00,68.4,56.6,29.95,South,188,9.0,12.0,66,0.00,,,0.00,Wunderground v.1.15,2013-08-13 22:20:00,
2013-08-13 15:25:00,68.3,56.1,29.95,South,188,8.0,12.0,65,0.00,,,0.00,Wunderground v.1.15,2013-08-13 22:25:00,
2013-08-13 15:35:00,69.1,56.4,29.95,SSW,213,9.0,9.0,64,0.00,,,0.00,Wunderground v.1.15,2013-08-13 22:35:00,
2013-08-13 15:40:00,69.1,56.4,29.95,SSW,202,9.0,10.0,64,0.00,,,0.00,Wunderground v.1.15,2013-08-13 22:40:00,
2013-08-13 15:45:00,69.2,56.5,29.95,SSW,207,8.0,10.0,64,0.00,,,0.00,Wunderground v.1.15,2013-08-13 22:45:00,
2013-08-13 15:50:00,68.7,56.5,29.95,SSW,194,7.0,7.0,65,0.00,,,0.00,Wunderground v.1.15,2013-08-13 22:50:00,
2013-08-13 15:55:00,68.1,56.7,29.95,South,188,6.0,7.0,67,0.00,,,0.00,Wunderground v.1.15,2013-08-13 22:55:00,
2013-08-13 16:05:00,68.2,56.8,29.94,South,175,5.0,9.0,67,0.00,,,0.00,Wunderground v.1.15,2013-08-13 23:05:00,
2013-08-13 16:10:00,68.8,57.0,29.94,SW,222,5.0,7.0,66,0.00,,,0.00,Wunderground v.1.15,2013-08-13 23:10:00,
2013-08-13 16:15:00,69.0,57.2,29.94,South,176,6.0,7.0,66,0.00,,,0.00,Wunderground v.1.15,2013-08-13 23:15:00,
2013-08-13 16:25:00,69.0,57.2,29.94,South,188,6.0,6.0,66,0.00,,,0.00,Wunderground v.1.15,2013-08-13 23:25:00,
2013-08-13 16:30:00,69.1,57.3,29.93,SSE,167,6.0,6.0,66,0.00,,,0.00,Wunderground v.1.15,2013-08-13 23:30:00,
2013-08-13 16:35:00,69.5,57.2,29.93,SSW,211,5.0,6.0,65,0.00,,,0.00,Wunderground v.1.15,2013-08-13 23:35:00,
2013-08-13 16:40:00,69.5,57.2,29.93,SSE,167,5.0,5.0,65,0.00,,,0.00,Wunderground v.1.15,2013-08-13 23:40:00,
2013-08-13 16:45:00,69.8,57.1,29.93,South,169,6.0,7.0,64,0.00,,,0.00,Wunderground v.1.15,2013-08-13 23:45:00,
2013-08-13 16:55:00,68.8,56.1,29.93,SSE,162,7.0,7.0,64,0.00,,,0.00,Wunderground v.1.15,2013-08-13 23:55:00,
2013-08-13 17:00:00,68.4,56.2,29.93,South,188,7.0,7.0,65,0.00,,,0.00,Wunderground v.1.15,2013-08-14 00:00:00,
2013-08-13 17:05:00,68.1,55.9,29.93,South,171,7.0,7.0,65,0.00,,,0.00,Wunderground v.1.15,2013-08-14 00:05:00,
2013-08-13 17:10:00,68.4,55.7,29.93,South,173,7.0,7.0,64,0.00,,,0.00,Wunderground v.1.15,2013-08-14 00:10:00,
2013-08-13 17:15:00,68.4,55.7,29.93,South,181,7.0,7.0,64,0.00,,,0.00,Wunderground v.1.15,2013-08-14 00:15:00,
2013-08-13 17:20:00,68.1,55.9,29.92,SSW,197,8.0,8.0,65,0.00,,,0.00,Wunderground v.1.15,2013-08-14 00:20:00,
2013-08-13 17:30:00,67.6,55.8,29.92,South,191,9.0,9.0,66,0.00,,,0.00,Wunderground v.1.15,2013-08-14 00:30:00,
2013-08-13 17:35:00,67.2,55.9,29.92,SSE,164,8.0,9.0,67,0.00,,,0.00,Wunderground v.1.15,2013-08-14 00:35:00,
2013-08-13 17:40:00,67.1,56.2,29.93,South,175,5.0,9.0,68,0.00,,,0.00,Wunderground v.1.15,2013-08-14 00:40:00,
2013-08-13 17:45:00,66.6,56.1,29.93,SSW,194,5.0,9.0,69,0.00,,,0.00,Wunderground v.1.15,2013-08-14 00:45:00,
2013-08-13 17:50:00,65.9,55.8,29.92,South,183,7.0,7.0,70,0.00,,,0.00,Wunderground v.1.15,2013-08-14 00:50:00,
2013-08-13 18:00:00,65.4,55.7,29.92,South,180,5.0,5.0,71,0.00,,,0.00,Wunderground v.1.15,2013-08-14 01:00:00,
2013-08-13 18:05:00,65.0,55.8,29.92,SSE,154,5.0,8.0,72,0.00,,,0.00,Wunderground v.1.15,2013-08-14 01:05:00,
2013-08-13 18:10:00,64.9,56.0,29.92,SSE,163,4.0,6.0,73,0.00,,,0.00,Wunderground v.1.15,2013-08-14 01:10:00,
2013-08-13 18:15:00,65.2,55.9,29.92,South,175,5.0,6.0,72,0.00,,,0.00,Wunderground v.1.15,2013-08-14 01:15:00,
2013-08-13 18:20:00,65.4,55.7,29.92,SSE,167,5.0,5.0,71,0.00,,,0.00,Wunderground v.1.15,2013-08-14 01:20:00,
2013-08-13 18:30:00,65.3,56.0,29.92,SSE,166,4.0,4.0,72,0.00,,,0.00,Wunderground v.1.15,2013-08-14 01:30:00,
2013-08-13 18:35:00,65.1,55.8,29.92,SSE,163,5.0,7.0,72,0.00,,,0.00,Wunderground v.1.15,2013-08-14 01:35:00,
2013-08-13 18:40:00,64.6,55.7,29.91,South,176,5.0,9.0,73,0.00,,,0.00,Wunderground v.1.15,2013-08-14 01:40:00,
2013-08-13 18:45:00,64.6,55.7,29.91,South,171,4.0,9.0,73,0.00,,,0.00,Wunderground v.1.15,2013-08-14 01:45:00,
2013-08-13 18:55:00,64.1,55.6,29.91,South,171,5.0,6.0,74,0.00,,,0.00,Wunderground v.1.15,2013-08-14 01:55:00,
2013-08-13 19:00:00,64.0,55.5,29.91,SSE,161,4.0,4.0,74,0.00,,,0.00,Wunderground v.1.15,2013-08-14 02:00:00,
2013-08-13 19:05:00,63.8,55.4,29.91,SSE,158,1.0,4.0,74,0.00,,,0.00,Wunderground v.1.15,2013-08-14 02:05:00,
2013-08-13 19:10:00,63.2,55.1,29.91,SSE,157,2.0,3.0,75,0.00,,,0.00,Wunderground v.1.15,2013-08-14 02:10:00,
2013-08-13 19:20:00,62.5,55.2,29.90,South,172,3.0,3.0,77,0.00,,,0.00,Wunderground v.1.15,2013-08-14 02:20:00,
2013-08-13 19:25:00,62.4,55.1,29.90,SSE,163,1.0,3.0,77,0.00,,,0.00,Wunderground v.1.15,2013-08-14 02:25:00,
2013-08-13 19:30:00,61.9,55.0,29.91,SSE,164,1.0,1.0,78,0.00,,,0.00,Wunderground v.1.15,2013-08-14 02:30:00,
2013-08-13 19:35:00,61.4,54.8,29.90,SSE,167,2.0,2.0,79,0.00,,,0.00,Wunderground v.1.15,2013-08-14 02:35:00,
2013-08-13 19:40:00,61.0,54.4,29.91,SSE,166,1.0,1.0,79,0.00,,,0.00,Wunderground v.1.15,2013-08-14 02:40:00,
2013-08-13 19:50:00,60.4,54.2,29.91,SSE,166,0.0,3.0,80,0.00,,,0.00,Wunderground v.1.15,2013-08-14 02:50:00,
2013-08-13 19:55:00,60.3,54.1,29.91,SSE,166,0.0,3.0,80,0.00,,,0.00,Wunderground v.1.15,2013-08-14 02:55:00,
2013-08-13 20:00:00,60.0,54.2,29.91,SSE,166,0.0,3.0,81,0.00,,,0.00,Wunderground v.1.15,2013-08-14 03:00:00,
2013-08-13 20:05:00,59.5,54.0,29.91,SSE,165,1.0,5.0,82,0.00,,,0.00,Wunderground v.1.15,2013-08-14 03:05:00,
2013-08-13 20:10:00,59.2,54.0,29.91,SSE,165,1.0,1.0,83,0.00,,,0.00,Wunderground v.1.15,2013-08-14 03:10:00,
2013-08-13 20:20:00,58.7,53.9,29.91,SSE,165,0.0,3.0,84,0.00,,,0.00,Wunderground v.1.15,2013-08-14 03:20:00,
2013-08-13 20:25:00,58.6,53.8,29.91,SSE,165,0.0,3.0,84,0.00,,,0.00,Wunderground v.1.15,2013-08-14 03:25:00,
2013-08-13 20:30:00,58.4,53.6,29.92,SSE,165,0.0,3.0,84,0.00,,,0.00,Wunderground v.1.15,2013-08-14 03:30:00,
2013-08-13 20:35:00,58.3,53.8,29.92,SSE,165,0.0,3.0,85,0.00,,,0.00,Wunderground v.1.15,2013-08-14 03:35:00,
2013-08-13 20:40:00,58.1,53.6,29.92,SSE,164,1.0,1.0,85,0.00,,,0.00,Wunderground v.1.15,2013-08-14 03:40:00,
2013-08-13 20:50:00,57.7,53.2,29.92,SSE,164,0.0,3.0,85,0.00,,,0.00,Wunderground v.1.15,2013-08-14 03:50:00,
2013-08-13 20:55:00,57.5,53.3,29.92,SSE,164,0.0,3.0,86,0.00,,,0.00,Wunderground v.1.15,2013-08-14 03:55:00,
2013-08-13 21:00:00,57.4,53.2,29.93,SSE,165,0.0,3.0,86,0.00,,,0.00,Wunderground v.1.15,2013-08-14 04:00:00,
2013-08-13 21:05:00,57.2,53.0,29.93,SSE,165,0.0,3.0,86,0.00,,,0.00,Wunderground v.1.15,2013-08-14 04:05:00,
2013-08-13 21:10:00,57.1,53.0,29.93,SSE,164,0.0,3.0,86,0.00,,,0.00,Wunderground v.1.15,2013-08-14 04:10:00,
2013-08-13 21:15:00,56.8,53.0,29.93,SSE,164,0.0,3.0,87,0.00,,,0.00,Wunderground v.1.15,2013-08-14 04:15:00,
2013-08-13 21:20:00,56.7,52.9,29.93,SSE,164,0.0,3.0,87,0.00,,,0.00,Wunderground v.1.15,2013-08-14 04:20:00,
2013-08-13 21:25:00,56.6,52.8,29.93,SSE,164,0.0,3.0,87,0.00,,,0.00,Wunderground v.1.15,2013-08-14 04:25:00,
2013-08-13 21:30:00,56.6,53.1,29.93,SSE,165,0.0,3.0,88,0.00,,,0.00,Wunderground v.1.15,2013-08-14 04:30:00,
2013-08-13 21:35:00,56.5,53.0,29.93,SSE,164,0.0,3.0,88,0.00,,,0.00,Wunderground v.1.15,2013-08-14 04:35:00,
2013-08-13 21:45:00,56.2,52.4,29.93,SSE,164,0.0,3.0,87,0.00,,,0.00,Wunderground v.1.15,2013-08-14 04:45:00,
2013-08-13 21:50:00,55.8,52.0,29.93,SSE,164,0.0,3.0,87,0.00,,,0.00,Wunderground v.1.15,2013-08-14 04:50:00,
2013-08-13 21:55:00,55.5,52.0,29.93,SSE,164,0.0,3.0,88,0.00,,,0.00,Wunderground v.1.15,2013-08-14 04:55:00,
2013-08-13 22:00:00,55.2,52.0,29.93,SSE,164,0.0,3.0,89,0.00,,,0.00,Wunderground v.1.15,2013-08-14 05:00:00,
2013-08-13 22:05:00,55.1,52.2,29.93,SSE,165,0.0,3.0,90,0.00,,,0.00,Wunderground v.1.15,2013-08-14 05:05:00,
2013-08-13 22:15:00,55.1,52.2,29.93,SSE,165,0.0,3.0,90,0.00,,,0.00,Wunderground v.1.15,2013-08-14 05:15:00,
2013-08-13 22:20:00,54.9,51.7,29.93,SSE,164,0.0,3.0,89,0.00,,,0.00,Wunderground v.1.15,2013-08-14 05:20:00,
2013-08-13 22:25:00,54.8,51.9,29.94,SSE,165,0.0,3.0,90,0.00,,,0.00,Wunderground v.1.15,2013-08-14 05:25:00,
2013-08-13 22:35:00,54.6,51.7,29.94,SSE,164,0.0,3.0,90,0.00,,,0.00,Wunderground v.1.15,2013-08-14 05:35:00,
2013-08-13 22:40:00,54.4,51.2,29.94,SSE,164,0.0,3.0,89,0.00,,,0.00,Wunderground v.1.15,2013-08-14 05:40:00,
2013-08-13 22:45:00,53.9,50.7,29.94,SSE,164,0.0,3.0,89,0.00,,,0.00,Wunderground v.1.15,2013-08-14 05:45:00,
2013-08-13 22:50:00,53.6,50.4,29.94,SSE,164,0.0,3.0,89,0.00,,,0.00,Wunderground v.1.15,2013-08-14 05:50:00,
2013-08-13 23:00:00,53.2,50.6,29.94,SSE,165,0.0,3.0,91,0.00,,,0.00,Wunderground v.1.15,2013-08-14 06:00:00,
2013-08-13 23:05:00,53.1,50.5,29.94,SSE,165,0.0,3.0,91,0.00,,,0.00,Wunderground v.1.15,2013-08-14 06:05:00,
2013-08-13 23:10:00,52.9,50.3,29.94,SSE,164,0.0,3.0,91,0.00,,,0.00,Wunderground v.1.15,2013-08-14 06:10:00,
2013-08-13 23:15:00,52.8,50.5,29.94,SSE,164,0.0,3.0,92,0.00,,,0.00,Wunderground v.1.15,2013-08-14 06:15:00,
2013-08-13 23:20:00,52.7,50.4,29.94,SSE,165,0.0,3.0,92,0.00,,,0.00,Wunderground v.1.15,2013-08-14 06:20:00,
2013-08-13 23:30:00,52.4,50.1,29.94,SSE,164,0.0,3.0,92,0.00,,,0.00,Wunderground v.1.15,2013-08-14 06:30:00,
2013-08-13 23:35:00,52.1,49.6,29.94,SSE,164,0.0,3.0,91,0.00,,,0.00,Wunderground v.1.15,2013-08-14 06:35:00,
2013-08-13 23:40:00,51.8,49.3,29.94,SSE,164,0.0,3.0,91,0.00,,,0.00,Wunderground v.1.15,2013-08-14 06:40:00,
2013-08-13 23:45:00,51.6,49.4,29.94,SSE,165,0.0,3.0,92,0.00,,,0.00,Wunderground v.1.15,2013-08-14 06:45:00,
2013-08-13 23:50:00,51.5,49.8,29.94,SSE,164,0.0,3.0,94,0.00,,,0.00,Wunderground v.1.15,2013-08-14 06:50:00,
2013-08-13 23:55:00,51.8,50.1,29.95,SSE,164,0.0,3.0,94,0.00,,,0.00,Wunderground v.1.15,2013-08-14 06:55:00,